createdAt,value
2023-05-21T00:01:08.299Z,87.73
2023-05-21T00:03:36.596Z,86.45
2023-05-21T00:06:04.205Z,86.85
2023-05-21T00:08:31.343Z,87.83
2023-05-21T00:10:58.342Z,88.22
2023-05-21T00:13:25.204Z,88.83
2023-05-21T00:15:52.154Z,88.43
2023-05-21T00:18:19.336Z,89.03
2023-05-21T00:20:46.110Z,88.85
2023-05-21T00:23:13.163Z,88.43
2023-05-21T00:25:40.084Z,88.80
2023-05-21T00:28:07.005Z,88.60
2023-05-21T00:30:33.795Z,88.44
2023-05-21T00:33:03.081Z,89.45
2023-05-21T00:35:30.145Z,89.25
2023-05-21T00:37:57.544Z,88.85
2023-05-21T00:40:24.551Z,89.39
2023-05-21T00:42:51.362Z,89.63
2023-05-21T00:45:18.241Z,90.26
2023-05-21T00:47:46.074Z,89.89
2023-05-21T00:50:15.302Z,89.91
2023-05-21T00:52:44.330Z,89.16
2023-05-21T00:55:11.322Z,86.92
2023-05-21T00:57:39.836Z,88.65
2023-05-21T01:00:09.060Z,89.05
2023-05-21T01:02:37.686Z,89.60
2023-05-21T01:05:07.427Z,89.51
2023-05-21T01:07:36.297Z,90.08
2023-05-21T01:10:05.346Z,89.92
2023-05-21T01:12:34.282Z,90.46
2023-05-21T01:15:03.104Z,90.48
2023-05-21T01:17:30.378Z,90.75
2023-05-21T01:19:58.495Z,91.02
2023-05-21T01:22:25.603Z,91.36
2023-05-21T01:24:55.777Z,91.60
2023-05-21T01:27:23.146Z,91.38
2023-05-21T01:29:50.051Z,91.17
2023-05-21T01:32:28.843Z,91.82
2023-05-21T01:35:17.143Z,92.09
2023-05-21T01:38:13.516Z,91.51
2023-05-21T01:41:03.934Z,91.58
2023-05-21T01:43:37.223Z,91.76
2023-05-21T01:46:05.865Z,92.04
2023-05-21T01:48:32.881Z,92.38
2023-05-21T01:51:03.628Z,92.10
2023-05-21T01:53:30.780Z,91.58
2023-05-21T01:55:57.733Z,91.38
2023-05-21T01:58:24.586Z,91.23
2023-05-21T02:00:51.460Z,91.62
2023-05-21T02:03:19.768Z,91.17
2023-05-21T02:05:47.366Z,91.45
2023-05-21T02:08:15.543Z,91.47
2023-05-21T02:10:42.406Z,90.88
2023-05-21T02:13:09.267Z,91.73
2023-05-21T02:15:36.568Z,90.76
2023-05-21T02:18:04.201Z,91.87
2023-05-21T02:20:31.620Z,92.47
2023-05-21T02:22:58.384Z,92.17
2023-05-21T02:25:25.189Z,92.73
2023-05-21T02:27:53.900Z,92.30
2023-05-21T02:30:21.120Z,91.96
2023-05-21T02:32:50.120Z,92.10
2023-05-21T02:35:16.977Z,91.79
2023-05-21T02:37:44.473Z,92.36
2023-05-21T02:40:12.080Z,92.34
2023-05-21T02:42:40.545Z,92.84
2023-05-21T02:45:11.844Z,92.39
2023-05-21T02:47:39.242Z,93.17
2023-05-21T02:50:08.997Z,93.03
2023-05-21T02:52:36.016Z,92.57
2023-05-21T02:55:02.996Z,93.57
2023-05-21T02:57:29.811Z,94.46
2023-05-21T02:59:56.654Z,93.55
2023-05-21T03:02:23.873Z,95.42
2023-05-21T03:04:51.675Z,96.73
2023-05-21T03:07:20.214Z,95.66
2023-05-21T03:09:47.149Z,96.60
2023-05-21T03:12:14.011Z,96.85
2023-05-21T03:14:44.368Z,96.14
2023-05-21T03:17:14.240Z,96.62
2023-05-21T03:19:44.950Z,96.08
2023-05-21T03:22:11.853Z,96.57
2023-05-21T03:24:39.516Z,96.49
2023-05-21T03:27:09.170Z,96.79
2023-05-21T03:29:36.404Z,96.73
2023-05-21T03:32:03.697Z,97.21
2023-05-21T03:34:30.607Z,94.99
2023-05-21T03:36:57.448Z,94.14
2023-05-21T03:39:24.261Z,94.08
2023-05-21T03:41:51.139Z,94.51
2023-05-21T03:44:17.997Z,94.27
2023-05-21T03:46:45.924Z,93.37
2023-05-21T03:49:12.826Z,94.02
2023-05-21T03:51:39.884Z,94.18
2023-05-21T03:54:06.783Z,93.93
2023-05-21T03:56:33.691Z,93.78
2023-05-21T03:59:00.488Z,93.25
2023-05-21T04:01:28.713Z,93.21
2023-05-21T04:03:56.114Z,93.52
2023-05-21T04:06:23.055Z,94.21
2023-05-21T04:08:49.926Z,94.33
2023-05-21T04:11:17.124Z,94.65
2023-05-21T04:13:43.895Z,94.04
2023-05-21T04:16:11.141Z,93.42
2023-05-21T04:18:37.958Z,93.48
2023-05-21T04:21:05.141Z,93.61
2023-05-21T04:23:32.041Z,94.41
2023-05-21T04:25:58.853Z,94.03
2023-05-21T04:28:29.031Z,93.16
2023-05-21T04:30:56.789Z,93.18
2023-05-21T04:33:24.775Z,92.43
2023-05-21T04:35:52.030Z,91.53
2023-05-21T04:38:22.027Z,90.27
2023-05-21T04:40:52.133Z,90.51
2023-05-21T04:43:26.518Z,90.01
2023-05-21T04:45:56.620Z,89.62
2023-05-21T04:48:25.105Z,89.08
2023-05-21T04:50:53.820Z,89.58
2023-05-21T04:53:21.024Z,89.80
2023-05-21T04:55:48.222Z,88.07
2023-05-21T04:58:18.083Z,88.19
2023-05-21T05:00:47.369Z,87.05
2023-05-21T05:03:14.850Z,87.09
2023-05-21T05:05:42.251Z,86.76
2023-05-21T05:08:09.033Z,85.91
2023-05-21T05:10:36.278Z,85.88
2023-05-21T05:13:03.232Z,85.53
2023-05-21T05:15:30.100Z,84.94
2023-05-21T05:17:56.973Z,84.70
2023-05-21T05:20:23.889Z,84.37
2023-05-21T05:22:50.826Z,84.22
2023-05-21T05:25:17.807Z,83.60
2023-05-21T05:27:44.772Z,83.38
2023-05-21T05:30:12.064Z,83.26
2023-05-21T05:32:38.920Z,82.97
2023-05-21T05:35:06.455Z,83.56
2023-05-21T05:37:33.890Z,82.27
2023-05-21T05:40:00.668Z,82.08
2023-05-21T05:42:27.471Z,82.44
2023-05-21T05:44:54.197Z,81.33
2023-05-21T05:47:22.039Z,81.61
2023-05-21T05:49:48.859Z,81.60
2023-05-21T05:52:15.630Z,81.68
2023-05-21T05:54:42.399Z,81.73
2023-05-21T05:57:09.224Z,80.88
2023-05-21T05:59:36.233Z,80.72
2023-05-21T06:02:03.045Z,80.78
2023-05-21T06:04:30.329Z,80.33
2023-05-21T06:06:57.952Z,79.41
2023-05-21T06:09:25.113Z,77.66
2023-05-21T06:11:51.972Z,79.54
2023-05-21T06:14:18.847Z,78.33
2023-05-21T06:16:45.709Z,79.04
2023-05-21T06:19:12.569Z,78.46
2023-05-21T06:21:39.464Z,78.15
2023-05-21T06:24:06.791Z,77.88
2023-05-21T06:26:33.611Z,76.02
2023-05-21T06:29:00.650Z,76.15
2023-05-21T06:31:28.296Z,76.54
2023-05-21T06:33:55.379Z,76.61
2023-05-21T06:36:22.408Z,75.49
2023-05-21T06:38:49.362Z,76.48
2023-05-21T06:41:16.197Z,76.00
2023-05-21T06:43:43.019Z,75.02
2023-05-21T06:46:09.950Z,75.30
2023-05-21T06:48:36.861Z,74.70
2023-05-21T06:51:03.857Z,74.08
2023-05-21T06:53:30.933Z,73.67
2023-05-21T06:55:57.830Z,73.30
2023-05-21T06:58:24.790Z,72.91
2023-05-21T07:00:51.795Z,72.03
2023-05-21T07:03:18.710Z,72.27
2023-05-21T07:05:45.676Z,70.73
2023-05-21T07:08:12.607Z,69.25
2023-05-21T07:10:39.428Z,68.14
2023-05-21T07:13:06.348Z,66.89
2023-05-21T07:15:33.147Z,66.54
2023-05-21T07:18:00.150Z,67.35
2023-05-21T07:20:27.142Z,66.64
2023-05-21T07:22:54.001Z,65.35
2023-05-21T07:25:21.190Z,64.41
2023-05-21T07:27:48.013Z,63.49
2023-05-21T07:30:15.207Z,63.91
2023-05-21T07:32:42.390Z,64.10
2023-05-21T07:35:09.690Z,62.70
2023-05-21T07:37:36.648Z,61.34
2023-05-21T07:40:04.451Z,61.98
2023-05-21T07:42:31.519Z,60.31
2023-05-21T07:44:58.319Z,57.76
2023-05-21T07:47:25.150Z,55.93
2023-05-21T07:49:52.143Z,54.79
2023-05-21T07:52:19.080Z,54.37
2023-05-21T07:54:46.116Z,54.03
2023-05-21T07:57:12.893Z,53.81
2023-05-21T07:59:39.765Z,54.81
2023-05-21T08:02:06.652Z,53.39
2023-05-21T08:04:33.621Z,55.30
2023-05-21T08:07:00.432Z,54.22
2023-05-21T08:09:27.332Z,52.68
2023-05-21T08:11:54.113Z,52.91
2023-05-21T08:14:21.002Z,51.44
2023-05-21T08:16:47.958Z,51.43
2023-05-21T08:19:14.833Z,48.77
2023-05-21T08:21:41.965Z,48.98
2023-05-21T08:24:09.180Z,50.11
2023-05-21T08:26:36.754Z,48.92
2023-05-21T08:29:03.644Z,48.38
2023-05-21T08:31:30.573Z,48.35
2023-05-21T08:33:57.574Z,47.68
2023-05-21T08:36:25.139Z,46.73
2023-05-21T08:38:51.971Z,46.73
2023-05-21T08:41:23.516Z,47.59
2023-05-21T08:44:00.542Z,47.79
2023-05-21T08:46:32.356Z,47.35
2023-05-21T08:49:01.877Z,47.14
2023-05-21T08:51:29.211Z,46.88
2023-05-21T08:53:57.802Z,46.22
2023-05-21T08:56:25.018Z,45.37
2023-05-21T08:58:52.510Z,44.77
2023-05-21T09:01:20.057Z,43.78
2023-05-21T09:03:47.511Z,44.30
2023-05-21T09:06:14.810Z,42.96
2023-05-21T09:08:49.871Z,42.82
2023-05-21T09:11:16.786Z,43.23
2023-05-21T09:13:45.207Z,42.97
2023-05-21T09:16:12.394Z,41.98
2023-05-21T09:18:39.156Z,42.00
2023-05-21T09:21:24.727Z,41.91
2023-05-21T09:23:56.455Z,41.86
2023-05-21T09:26:24.087Z,41.75
2023-05-21T09:28:52.533Z,41.90
2023-05-21T09:31:19.428Z,40.14
2023-05-21T09:33:49.950Z,42.55
2023-05-21T09:36:23.112Z,41.08
2023-05-21T09:38:52.279Z,41.60
2023-05-21T09:41:32.361Z,41.71
2023-05-21T09:44:01.410Z,39.13
2023-05-21T09:46:28.445Z,40.79
2023-05-21T09:48:55.298Z,40.18
2023-05-21T09:51:22.125Z,41.65
2023-05-21T09:53:51.513Z,40.80
2023-05-21T09:56:26.363Z,40.14
2023-05-21T09:58:57.307Z,40.19
2023-05-21T10:01:24.916Z,39.82
2023-05-21T10:03:56.621Z,40.41
2023-05-21T10:06:26.787Z,39.36
2023-05-21T10:08:57.082Z,39.66
2023-05-21T10:11:27.344Z,38.42
2023-05-21T10:14:09.242Z,39.26
2023-05-21T10:16:37.869Z,38.74
2023-05-21T10:19:06.230Z,39.22
2023-05-21T10:21:36.302Z,38.93
2023-05-21T10:24:04.694Z,37.20
2023-05-21T10:26:31.919Z,37.46
2023-05-21T10:29:00.668Z,37.87
2023-05-21T10:31:30.561Z,37.39
2023-05-21T10:33:58.120Z,36.55
2023-05-21T10:36:27.957Z,36.22
2023-05-21T10:38:58.741Z,36.85
2023-05-21T10:41:28.463Z,36.14
2023-05-21T10:44:17.232Z,37.78
2023-05-21T10:47:05.395Z,36.79
2023-05-21T10:49:55.195Z,37.60
2023-05-21T10:52:52.678Z,36.79
2023-05-21T10:55:37.737Z,36.64
2023-05-21T10:58:35.632Z,37.41
2023-05-21T11:01:03.361Z,37.29
2023-05-21T11:03:34.305Z,36.68
2023-05-21T11:06:05.682Z,37.00
2023-05-21T11:08:36.320Z,36.54
2023-05-21T11:11:04.138Z,35.98
2023-05-21T11:13:49.555Z,36.30
2023-05-21T11:16:17.445Z,35.64
2023-05-21T11:18:47.136Z,33.87
2023-05-21T11:21:15.708Z,35.27
2023-05-21T11:23:51.615Z,34.41
2023-05-21T11:26:26.473Z,34.58
2023-05-21T11:29:05.577Z,33.28
2023-05-21T11:31:38.897Z,32.66
2023-05-21T11:34:28.905Z,32.25
2023-05-21T11:37:23.673Z,31.71
2023-05-21T11:39:51.522Z,33.34
2023-05-21T11:42:32.313Z,32.96
2023-05-21T11:45:00.262Z,32.28
2023-05-21T11:47:29.191Z,32.17
2023-05-21T11:49:57.709Z,32.50
2023-05-21T11:52:25.511Z,32.33
2023-05-21T11:54:57.221Z,32.04
2023-05-21T11:57:30.960Z,31.35
2023-05-21T11:59:59.370Z,32.34
2023-05-21T12:02:33.266Z,32.81
2023-05-21T12:05:00.770Z,34.62
2023-05-21T12:07:30.095Z,31.57
2023-05-21T12:09:57.631Z,31.14
2023-05-21T12:12:30.809Z,30.55
2023-05-21T12:15:02.881Z,31.79
2023-05-21T12:17:32.012Z,31.92
2023-05-21T12:19:59.158Z,31.45
2023-05-21T12:22:29.324Z,32.10
2023-05-21T12:24:58.478Z,31.73
2023-05-21T12:27:25.423Z,31.97
2023-05-21T12:29:53.298Z,31.39
2023-05-21T12:32:21.598Z,31.04
2023-05-21T12:34:54.918Z,30.54
2023-05-21T12:37:32.624Z,31.40
2023-05-21T12:40:01.723Z,30.19
2023-05-21T12:42:31.270Z,30.60
2023-05-21T12:44:58.433Z,31.44
2023-05-21T12:47:27.107Z,31.28
2023-05-21T12:49:58.123Z,32.78
2023-05-21T12:52:27.446Z,30.79
2023-05-21T12:54:59.086Z,30.92
2023-05-21T12:57:30.550Z,29.41
2023-05-21T12:59:59.726Z,29.06
2023-05-21T13:02:32.706Z,27.34
2023-05-21T13:04:59.480Z,26.00
2023-05-21T13:07:28.170Z,27.50
2023-05-21T13:09:56.007Z,27.14
2023-05-21T13:12:24.783Z,27.86
2023-05-21T13:14:53.218Z,26.49
2023-05-21T13:17:21.118Z,26.44
2023-05-21T13:20:15.650Z,26.96
2023-05-21T13:22:48.100Z,26.75
2023-05-21T13:25:21.539Z,25.87
2023-05-21T13:27:50.332Z,24.79
2023-05-21T13:30:17.567Z,26.11
2023-05-21T13:32:44.884Z,25.95
2023-05-21T13:35:12.487Z,26.70
2023-05-21T13:37:40.555Z,26.62
2023-05-21T13:40:11.350Z,26.97
2023-05-21T13:42:41.214Z,25.65
2023-05-21T13:45:10.721Z,26.31
2023-05-21T13:47:40.153Z,27.43
2023-05-21T13:50:11.123Z,26.54
2023-05-21T13:52:38.532Z,28.36
2023-05-21T13:55:06.131Z,27.01
2023-05-21T13:57:33.491Z,27.46
2023-05-21T14:00:01.401Z,26.99
2023-05-21T14:02:28.598Z,26.82
2023-05-21T14:04:55.540Z,27.93
2023-05-21T14:07:22.720Z,28.06
2023-05-21T14:09:49.819Z,27.10
2023-05-21T14:12:17.366Z,26.40
2023-05-21T14:14:44.381Z,26.82
2023-05-21T14:17:11.370Z,26.39
2023-05-21T14:19:38.186Z,25.88
2023-05-21T14:22:05.174Z,27.49
2023-05-21T14:24:32.009Z,26.39
2023-05-21T14:26:58.841Z,28.04
2023-05-21T14:29:25.662Z,27.56
2023-05-21T14:31:52.586Z,26.55
2023-05-21T14:34:19.519Z,27.08
2023-05-21T14:36:46.291Z,26.89
2023-05-21T14:39:13.136Z,26.41
2023-05-21T14:41:40.073Z,26.85
2023-05-21T14:44:07.046Z,28.01
2023-05-21T14:46:34.095Z,26.71
2023-05-21T14:49:01.181Z,28.18
2023-05-21T14:51:28.105Z,26.62
2023-05-21T14:53:55.965Z,26.83
2023-05-21T14:56:23.773Z,26.24
2023-05-21T14:58:50.652Z,28.08
2023-05-21T15:01:17.981Z,27.02
2023-05-21T15:03:44.886Z,27.59
2023-05-21T15:06:12.438Z,25.22
2023-05-21T15:08:39.253Z,26.91
2023-05-21T15:11:07.940Z,26.36
2023-05-21T15:13:34.857Z,27.26
2023-05-21T15:16:01.718Z,27.24
2023-05-21T15:18:29.572Z,26.26
2023-05-21T15:20:56.691Z,27.61
2023-05-21T15:23:23.521Z,26.62
2023-05-21T15:25:50.541Z,27.15
2023-05-21T15:28:17.405Z,28.34
2023-05-21T15:30:44.222Z,27.29
2023-05-21T15:33:11.735Z,26.40
2023-05-21T15:35:39.027Z,28.53
2023-05-21T15:38:06.254Z,26.06
2023-05-21T15:40:33.162Z,27.78
2023-05-21T15:43:00.158Z,25.21
2023-05-21T15:45:27.095Z,25.82
2023-05-21T15:47:53.948Z,25.57
2023-05-21T15:50:20.908Z,25.65
2023-05-21T15:52:47.716Z,25.16
2023-05-21T15:55:14.723Z,28.15
2023-05-21T15:57:41.558Z,27.09
2023-05-21T16:00:09.842Z,27.41
2023-05-21T16:02:37.094Z,28.11
2023-05-21T16:05:04.216Z,27.82
2023-05-21T16:07:31.083Z,27.57
2023-05-21T16:09:57.982Z,26.99
2023-05-21T16:12:24.999Z,28.36
2023-05-21T16:14:52.029Z,28.63
2023-05-21T16:17:21.977Z,27.64
2023-05-21T16:19:48.883Z,28.38
2023-05-21T16:22:15.831Z,27.49
2023-05-21T16:24:42.990Z,27.74
2023-05-21T16:27:09.833Z,26.93
2023-05-21T16:29:38.658Z,29.82
2023-05-21T16:32:07.186Z,29.28
2023-05-21T16:34:34.741Z,28.96
2023-05-21T16:37:01.585Z,28.55
2023-05-21T16:39:28.359Z,27.75
2023-05-21T16:41:59.851Z,28.00
2023-05-21T16:44:27.636Z,26.76
2023-05-21T16:46:54.593Z,27.72
2023-05-21T16:49:21.396Z,27.88
2023-05-21T16:51:48.162Z,27.40
2023-05-21T16:54:14.989Z,28.32
2023-05-21T16:56:41.870Z,27.64
2023-05-21T16:59:08.689Z,27.92
2023-05-21T17:01:35.609Z,28.53
2023-05-21T17:04:02.712Z,27.77
2023-05-21T17:06:29.567Z,27.17
2023-05-21T17:08:56.484Z,27.07
2023-05-21T17:11:23.338Z,27.48
2023-05-21T17:13:50.166Z,28.41
2023-05-21T17:16:17.024Z,28.64
2023-05-21T17:18:44.002Z,29.05
2023-05-21T17:21:10.991Z,29.61
2023-05-21T17:23:37.830Z,30.40
2023-05-21T17:26:07.258Z,31.67
2023-05-21T17:28:33.992Z,33.53
2023-05-21T17:31:01.968Z,33.42
2023-05-21T17:33:28.870Z,33.40
2023-05-21T17:35:57.333Z,33.21
2023-05-21T17:38:24.226Z,32.97
2023-05-21T17:40:51.219Z,33.93
2023-05-21T17:43:18.293Z,34.43
2023-05-21T17:45:45.198Z,35.14
2023-05-21T17:48:12.442Z,36.50
2023-05-21T17:50:39.291Z,36.79
2023-05-21T17:53:06.230Z,38.40
2023-05-21T17:55:33.042Z,38.68
2023-05-21T17:57:59.782Z,39.94
2023-05-21T18:00:26.564Z,40.42
2023-05-21T18:02:53.407Z,40.63
2023-05-21T18:05:20.686Z,41.01
2023-05-21T18:07:49.478Z,41.49
2023-05-21T18:10:16.794Z,41.71
2023-05-21T18:12:46.629Z,41.97
2023-05-21T18:15:15.463Z,42.42
2023-05-21T18:17:42.350Z,42.72
2023-05-21T18:20:09.802Z,43.14
2023-05-21T18:22:36.922Z,43.32
2023-05-21T18:25:04.664Z,43.54
2023-05-21T18:27:31.483Z,43.54
2023-05-21T18:29:58.245Z,44.38
2023-05-21T18:32:25.166Z,44.55
2023-05-21T18:34:52.090Z,44.58
2023-05-21T18:37:19.088Z,44.87
2023-05-21T18:39:45.980Z,45.35
2023-05-21T18:42:14.124Z,46.11
2023-05-21T18:44:41.284Z,46.08
2023-05-21T18:47:08.323Z,47.05
2023-05-21T18:49:36.480Z,47.89
2023-05-21T18:52:04.588Z,48.74
2023-05-21T18:54:31.457Z,49.44
2023-05-21T18:57:00.611Z,49.16
2023-05-21T18:59:29.327Z,49.14
2023-05-21T19:01:56.405Z,50.04
2023-05-21T19:04:23.294Z,50.23
2023-05-21T19:06:50.147Z,50.16
2023-05-21T19:09:17.133Z,50.30
2023-05-21T19:11:44.179Z,50.80
2023-05-21T19:14:11.191Z,52.09
2023-05-21T19:16:38.192Z,52.24
2023-05-21T19:19:06.287Z,52.37
2023-05-21T19:21:33.329Z,52.24
2023-05-21T19:24:00.170Z,52.70
2023-05-21T19:26:27.146Z,52.72
2023-05-21T19:28:54.812Z,53.12
2023-05-21T19:31:23.245Z,53.76
2023-05-21T19:33:50.689Z,53.82
2023-05-21T19:36:18.705Z,54.31
2023-05-21T19:38:50.140Z,54.84
2023-05-21T19:41:17.697Z,55.12
2023-05-21T19:43:45.238Z,55.12
2023-05-21T19:46:12.266Z,55.49
2023-05-21T19:48:39.215Z,56.24
2023-05-21T19:51:06.250Z,56.45
2023-05-21T19:53:33.083Z,57.20
2023-05-21T19:56:00.265Z,57.20
2023-05-21T19:58:29.731Z,57.20
2023-05-21T20:00:58.629Z,58.08
2023-05-21T20:03:26.847Z,57.72
2023-05-21T20:05:54.517Z,58.18
2023-05-21T20:08:21.518Z,58.58
2023-05-21T20:10:51.336Z,59.38
2023-05-21T20:13:18.979Z,59.61
2023-05-21T20:15:45.860Z,59.85
2023-05-21T20:18:13.216Z,60.13
2023-05-21T20:20:41.538Z,60.25
2023-05-21T20:23:09.164Z,60.53
2023-05-21T20:25:36.052Z,61.66
2023-05-21T20:28:03.309Z,62.38
2023-05-21T20:30:34.190Z,63.17
2023-05-21T20:33:02.487Z,63.96
2023-05-21T20:35:29.764Z,63.85
2023-05-21T20:37:56.586Z,64.84
2023-05-21T20:40:23.472Z,65.38
2023-05-21T20:42:52.253Z,65.54
2023-05-21T20:45:19.278Z,65.81
2023-05-21T20:47:48.238Z,66.13
2023-05-21T20:50:17.980Z,66.53
2023-05-21T20:52:47.103Z,66.35
2023-05-21T20:55:14.916Z,67.30
2023-05-21T20:57:42.368Z,66.21
2023-05-21T21:00:12.126Z,67.01
2023-05-21T21:02:39.334Z,66.71
2023-05-21T21:05:06.652Z,67.95
2023-05-21T21:07:34.432Z,68.50
2023-05-21T21:10:01.648Z,69.65
2023-05-21T21:12:28.648Z,69.97
2023-05-21T21:14:55.683Z,69.97
2023-05-21T21:17:22.692Z,70.92
2023-05-21T21:19:49.472Z,71.61
2023-05-21T21:22:16.630Z,71.74
2023-05-21T21:24:43.470Z,72.85
2023-05-21T21:27:10.499Z,73.54
2023-05-21T21:29:37.327Z,72.97
2023-05-21T21:32:04.485Z,74.13
2023-05-21T21:34:31.261Z,74.21
2023-05-21T21:36:58.019Z,74.26
2023-05-21T21:39:26.414Z,73.71
2023-05-21T21:41:53.192Z,74.30
2023-05-21T21:44:19.986Z,74.32
2023-05-21T21:46:47.525Z,74.76
2023-05-21T21:49:16.951Z,74.97
2023-05-21T21:51:48.633Z,75.18
2023-05-21T21:54:15.445Z,75.33
2023-05-21T21:56:42.197Z,75.36
2023-05-21T21:59:09.106Z,76.51
2023-05-21T22:01:36.308Z,76.70
2023-05-21T22:04:03.342Z,76.68
2023-05-21T22:06:30.212Z,78.08
2023-05-21T22:08:57.047Z,78.42
2023-05-21T22:11:24.081Z,79.02
2023-05-21T22:13:50.873Z,79.20
2023-05-21T22:16:17.717Z,79.35
2023-05-21T22:18:44.652Z,79.73
2023-05-21T22:21:14.615Z,80.52
2023-05-21T22:23:41.657Z,80.76
2023-05-21T22:26:09.594Z,80.98
2023-05-21T22:28:36.510Z,80.68
2023-05-21T22:31:03.479Z,80.96
2023-05-21T22:33:30.525Z,82.53
2023-05-21T22:35:57.344Z,82.61
2023-05-21T22:38:25.070Z,82.80
2023-05-21T22:40:51.893Z,82.81
2023-05-21T22:43:18.746Z,82.65
2023-05-21T22:45:45.662Z,82.42
2023-05-21T22:48:12.516Z,82.83
2023-05-21T22:50:39.620Z,83.24
2023-05-21T22:53:07.268Z,83.69
2023-05-21T22:55:34.081Z,83.50
2023-05-21T22:58:00.874Z,84.76
2023-05-21T23:00:28.407Z,85.50
2023-05-21T23:02:55.277Z,84.98
2023-05-21T23:05:22.578Z,85.60
2023-05-21T23:07:49.984Z,85.13
2023-05-21T23:10:16.920Z,85.40
2023-05-21T23:12:43.798Z,84.72
2023-05-21T23:15:11.028Z,85.00
2023-05-21T23:17:38.605Z,85.20
2023-05-21T23:20:07.545Z,86.16
2023-05-21T23:22:34.891Z,87.08
2023-05-21T23:25:02.054Z,87.83
2023-05-21T23:27:29.517Z,87.95
2023-05-21T23:29:56.706Z,88.13
2023-05-21T23:32:24.229Z,88.60
2023-05-21T23:34:51.073Z,88.54
2023-05-21T23:37:18.070Z,88.96
2023-05-21T23:39:48.399Z,89.72
2023-05-21T23:42:16.709Z,90.85
2023-05-21T23:44:43.659Z,90.43
2023-05-21T23:47:10.638Z,90.62
2023-05-21T23:49:37.480Z,91.19
2023-05-21T23:52:04.473Z,90.34
2023-05-21T23:54:31.397Z,90.52
2023-05-21T23:56:58.179Z,90.69
2023-05-21T23:59:25.103Z,91.63
